createdAt,value
2018-12-14T00:02:11.664Z,83.90
2018-12-14T00:04:44.258Z,80.27
2018-12-14T00:07:16.230Z,77.30
2018-12-14T00:09:46.833Z,83.27
2018-12-14T00:12:16.936Z,82.65
2018-12-14T00:14:47.249Z,78.70
2018-12-14T00:17:18.096Z,80.03
2018-12-14T00:19:48.147Z,89.17
2018-12-14T00:22:18.358Z,92.60
2018-12-14T00:24:48.410Z,93.70
2018-12-14T00:27:18.908Z,96.57
2018-12-14T00:32:32.865Z,93.90
2018-12-14T00:35:03.253Z,94.33
2018-12-14T00:37:34.472Z,91.03
2018-12-14T00:40:05.892Z,95.03
2018-12-14T00:42:36.169Z,96.00
2018-12-14T00:45:06.456Z,93.27
2018-12-14T00:47:36.561Z,97.03
2018-12-14T00:50:07.852Z,97.40
2018-12-14T00:52:38.622Z,96.80
2018-12-14T00:55:08.907Z,94.07
2018-12-14T00:57:39.327Z,100.67
2018-12-14T01:00:10.700Z,97.17
2018-12-14T01:05:18.439Z,83.53
2018-12-14T01:07:48.448Z,78.10
2018-12-14T01:10:18.558Z,70.52
2018-12-14T01:12:48.925Z,63.93
2018-12-14T01:15:18.988Z,62.25
2018-12-14T01:17:49.116Z,60.97
2018-12-14T01:20:19.960Z,50.25
2018-12-14T01:22:50.150Z,51.40
2018-12-14T01:25:20.505Z,45.67
2018-12-14T01:27:51.061Z,44.17
2018-12-14T01:30:21.115Z,47.13
2018-12-14T01:32:53.021Z,45.70
2018-12-14T01:35:23.256Z,49.05
2018-12-14T01:37:53.840Z,38.90
2018-12-14T01:40:24.058Z,41.10
2018-12-14T01:42:54.482Z,43.83
2018-12-14T01:45:24.960Z,45.10
2018-12-14T01:47:55.804Z,44.90
2018-12-14T01:50:26.035Z,45.63
2018-12-14T01:52:56.225Z,44.37
2018-12-14T01:55:26.486Z,40.52
2018-12-14T01:57:56.680Z,41.87
2018-12-14T02:00:27.126Z,42.93
2018-12-14T02:02:57.292Z,44.43
2018-12-14T02:05:27.444Z,42.80
2018-12-14T02:07:57.811Z,42.90
2018-12-14T02:10:28.010Z,44.07
2018-12-14T02:12:58.807Z,42.37
2018-12-14T02:15:29.764Z,41.53
2018-12-14T02:17:59.993Z,43.93
2018-12-14T02:20:30.878Z,35.40
2018-12-14T02:23:01.252Z,37.80
2018-12-14T02:25:31.623Z,34.10
2018-12-14T02:28:02.205Z,36.47
2018-12-14T02:30:41.578Z,36.03
2018-12-14T02:33:12.890Z,33.77
2018-12-14T02:35:43.234Z,32.93
2018-12-14T02:38:13.424Z,30.72
2018-12-14T02:40:44.170Z,33.83
2018-12-14T02:43:14.434Z,33.30
2018-12-14T02:45:45.398Z,34.87
2018-12-14T02:48:15.907Z,33.00
2018-12-14T02:50:46.232Z,34.17
2018-12-14T02:53:16.289Z,31.00
2018-12-14T02:55:47.533Z,33.43
2018-12-14T02:58:17.552Z,36.60
2018-12-14T03:00:48.002Z,33.37
2018-12-14T03:03:18.379Z,29.82
2018-12-14T03:05:49.332Z,29.13
2018-12-14T03:08:20.273Z,27.82
2018-12-14T03:10:51.001Z,28.50
2018-12-14T03:13:21.397Z,30.20
2018-12-14T03:15:51.615Z,27.33
2018-12-14T03:18:21.811Z,26.68
2018-12-14T03:20:51.887Z,28.77
2018-12-14T03:23:22.418Z,28.70
2018-12-14T03:25:53.816Z,27.43
2018-12-14T03:28:23.883Z,30.57
2018-12-14T03:30:54.129Z,28.20
2018-12-14T03:33:24.866Z,29.97
2018-12-14T03:35:55.033Z,29.00
2018-12-14T03:38:25.412Z,30.67
2018-12-14T03:40:55.635Z,31.17
2018-12-14T03:43:25.931Z,32.13
2018-12-14T03:45:56.521Z,32.60
2018-12-14T03:48:27.080Z,31.10
2018-12-14T03:50:58.065Z,35.07
2018-12-14T03:53:28.420Z,29.50
2018-12-14T03:55:58.848Z,31.17
2018-12-14T03:58:29.841Z,31.97
2018-12-14T04:01:00.165Z,30.57
2018-12-14T04:03:30.325Z,31.60
2018-12-14T04:06:00.997Z,29.47
2018-12-14T04:08:31.618Z,31.48
2018-12-14T04:11:01.793Z,32.33
2018-12-14T04:13:32.040Z,35.50
2018-12-14T04:16:02.468Z,31.17
2018-12-14T04:18:33.128Z,32.77
2018-12-14T04:21:04.960Z,36.27
2018-12-14T04:23:35.891Z,33.80
2018-12-14T04:26:06.166Z,34.77
2018-12-14T04:28:37.703Z,35.30
2018-12-14T04:31:08.336Z,35.20
2018-12-14T04:33:39.356Z,34.37
2018-12-14T04:36:09.485Z,34.25
2018-12-14T04:38:41.824Z,33.63
2018-12-14T04:41:12.204Z,35.00
2018-12-14T04:43:42.610Z,33.47
2018-12-14T04:46:13.022Z,29.03
2018-12-14T04:48:43.176Z,28.13
2018-12-14T04:51:17.683Z,29.32
2018-12-14T04:53:48.108Z,26.63
2018-12-14T04:56:18.224Z,29.20
2018-12-14T04:58:48.494Z,26.63
2018-12-14T05:01:18.480Z,27.73
2018-12-14T05:03:48.470Z,26.83
2018-12-14T05:06:18.713Z,28.47
2018-12-14T05:08:48.709Z,27.60
2018-12-14T05:11:19.885Z,27.25
2018-12-14T05:13:50.312Z,26.80
2018-12-14T05:16:20.650Z,32.23
2018-12-14T05:18:51.533Z,27.93
2018-12-14T05:21:21.828Z,26.57
2018-12-14T05:23:51.861Z,26.47
2018-12-14T05:28:59.211Z,25.97
2018-12-14T05:31:29.300Z,26.93
2018-12-14T05:33:59.974Z,25.68
2018-12-14T05:36:30.706Z,29.13
2018-12-14T05:39:00.921Z,27.37
2018-12-14T05:44:13.913Z,27.47
2018-12-14T05:46:44.139Z,29.32
2018-12-14T05:49:14.632Z,27.25
2018-12-14T05:51:44.898Z,26.33
2018-12-14T05:54:15.273Z,27.00
2018-12-14T05:56:45.764Z,27.20
2018-12-14T05:59:15.760Z,27.00
2018-12-14T06:01:50.874Z,26.53
2018-12-14T06:04:22.245Z,25.37
2018-12-14T06:06:57.391Z,26.13
2018-12-14T06:09:28.223Z,24.17
2018-12-14T06:14:42.600Z,25.90
2018-12-14T06:17:13.476Z,25.10
2018-12-14T06:19:44.035Z,24.97
2018-12-14T06:22:23.131Z,25.03
2018-12-14T06:24:55.011Z,26.30
2018-12-14T06:27:26.733Z,26.17
2018-12-14T06:29:58.436Z,25.70
2018-12-14T06:32:29.768Z,26.50
2018-12-14T06:35:03.057Z,26.67
2018-12-14T06:37:33.108Z,27.63
2018-12-14T06:40:05.434Z,28.70
2018-12-14T06:42:35.763Z,27.37
2018-12-14T06:45:07.035Z,26.77
2018-12-14T06:47:37.340Z,27.30
2018-12-14T06:50:07.526Z,26.70
2018-12-14T06:52:38.526Z,26.97
2018-12-14T06:55:08.572Z,27.10
2018-12-14T06:57:38.804Z,25.53
2018-12-14T07:00:09.231Z,24.17
2018-12-14T07:02:39.283Z,25.90
2018-12-14T07:05:09.553Z,25.13
2018-12-14T07:07:39.546Z,24.83
2018-12-14T07:10:09.880Z,23.75
2018-12-14T07:12:40.771Z,24.77
2018-12-14T07:15:11.141Z,25.40
2018-12-14T07:20:24.913Z,24.80
2018-12-14T07:22:55.041Z,24.27
2018-12-14T07:25:25.174Z,23.70
2018-12-14T07:27:55.289Z,21.07
2018-12-14T07:30:25.460Z,23.40
2018-12-14T07:32:55.998Z,24.13
2018-12-14T07:35:26.411Z,23.93
2018-12-14T07:37:56.567Z,23.23
2018-12-14T07:40:27.150Z,23.53
2018-12-14T07:43:00.254Z,22.57
2018-12-14T07:45:31.458Z,21.87
2018-12-14T07:48:01.617Z,22.10
2018-12-14T07:50:31.778Z,20.57
2018-12-14T07:53:01.918Z,19.43
2018-12-14T07:55:31.971Z,19.30
2018-12-14T07:58:01.936Z,20.77
2018-12-14T08:00:32.299Z,20.53
2018-12-14T08:03:02.280Z,22.70
2018-12-14T08:05:32.397Z,23.43
2018-12-14T08:08:02.599Z,23.33
2018-12-14T08:10:32.736Z,21.20
2018-12-14T08:13:03.191Z,19.40
2018-12-14T08:15:33.442Z,19.67
2018-12-14T08:18:03.676Z,20.23
2018-12-14T08:23:23.027Z,21.17
2018-12-14T08:25:53.005Z,21.37
2018-12-14T08:28:23.613Z,22.93
2018-12-14T08:30:54.299Z,21.13
2018-12-14T08:33:24.544Z,22.63
2018-12-14T08:35:54.809Z,26.13
2018-12-14T08:38:25.814Z,24.63
2018-12-14T08:40:56.076Z,25.83
2018-12-14T08:43:26.565Z,27.13
2018-12-14T08:45:57.364Z,26.07
2018-12-14T08:48:27.919Z,26.90
2018-12-14T08:50:58.050Z,26.60
2018-12-14T08:53:28.496Z,25.93
2018-12-14T08:55:58.647Z,28.73
2018-12-14T08:58:28.978Z,26.70
2018-12-14T09:00:59.116Z,28.30
2018-12-14T09:03:29.728Z,25.80
2018-12-14T09:06:00.706Z,29.50
2018-12-14T09:08:30.885Z,26.83
2018-12-14T09:11:01.094Z,27.73
2018-12-14T09:13:31.345Z,28.07
2018-12-14T09:16:02.031Z,28.27
2018-12-14T09:18:32.189Z,24.37
2018-12-14T09:21:02.564Z,23.30
2018-12-14T09:23:32.717Z,22.30
2018-12-14T09:26:02.914Z,20.43
2018-12-14T09:28:34.285Z,21.23
2018-12-14T09:31:04.404Z,22.67
2018-12-14T09:33:34.803Z,19.23
2018-12-14T09:36:05.799Z,18.67
2018-12-14T09:38:35.846Z,18.67
2018-12-14T09:41:06.415Z,19.90
2018-12-14T09:43:36.391Z,21.47
2018-12-14T09:46:06.500Z,19.37
2018-12-14T09:48:37.076Z,19.07
2018-12-14T09:51:12.313Z,17.73
2018-12-14T09:53:40.517Z,16.73
2018-12-14T09:56:10.743Z,17.83
2018-12-14T09:58:41.638Z,18.10
2018-12-14T10:01:11.742Z,19.37
2018-12-14T10:03:42.599Z,19.10
2018-12-14T10:06:15.841Z,17.87
2018-12-14T10:08:45.227Z,18.43
2018-12-14T10:11:15.593Z,20.33
2018-12-14T10:13:45.845Z,19.13
2018-12-14T10:16:16.631Z,19.10
2018-12-14T10:18:47.192Z,19.90
2018-12-14T10:21:17.352Z,20.08
2018-12-14T10:23:47.294Z,18.13
2018-12-14T10:26:17.526Z,18.33
2018-12-14T10:28:48.093Z,17.23
2018-12-14T10:31:18.339Z,16.10
2018-12-14T10:33:48.940Z,17.30
2018-12-14T10:36:19.358Z,18.20
2018-12-14T10:38:49.929Z,15.67
2018-12-14T10:41:20.928Z,15.50
2018-12-14T10:43:51.843Z,15.10
2018-12-14T10:46:21.945Z,16.37
2018-12-14T10:48:52.096Z,16.50
2018-12-14T10:51:23.220Z,15.63
2018-12-14T10:53:57.440Z,15.67
2018-12-14T10:56:27.620Z,16.50
2018-12-14T10:58:58.115Z,17.80
2018-12-14T11:01:33.661Z,19.55
2018-12-14T11:04:04.581Z,19.57
2018-12-14T11:06:34.606Z,18.17
2018-12-14T11:09:06.784Z,19.90
2018-12-14T11:11:37.964Z,19.70
2018-12-14T11:14:13.773Z,21.63
2018-12-14T11:16:40.762Z,23.73
2018-12-14T11:19:11.081Z,21.80
2018-12-14T11:21:41.551Z,22.50
2018-12-14T11:24:11.781Z,22.87
2018-12-14T11:26:42.049Z,21.17
2018-12-14T11:29:12.248Z,20.43
2018-12-14T11:31:42.856Z,22.00
2018-12-14T11:34:13.359Z,22.87
2018-12-14T11:36:43.749Z,22.87
2018-12-14T11:39:14.158Z,22.65
2018-12-14T11:41:44.525Z,22.33
2018-12-14T11:44:20.655Z,23.27
2018-12-14T11:46:47.554Z,24.33
2018-12-14T11:49:17.672Z,24.60
2018-12-14T11:51:48.798Z,24.90
2018-12-14T11:54:18.914Z,22.50
2018-12-14T11:56:49.325Z,23.70
2018-12-14T11:59:19.331Z,24.77
2018-12-14T12:04:26.561Z,23.73
2018-12-14T12:06:56.534Z,20.67
2018-12-14T12:09:26.501Z,21.27
2018-12-14T12:11:56.867Z,20.80
2018-12-14T12:14:27.518Z,22.27
2018-12-14T12:16:57.574Z,20.97
2018-12-14T12:19:28.030Z,21.27
2018-12-14T12:21:58.148Z,20.13
2018-12-14T12:24:29.105Z,21.27
2018-12-14T12:26:59.649Z,21.90
2018-12-14T12:29:30.131Z,21.00
2018-12-14T12:32:00.124Z,21.17
2018-12-14T12:34:30.254Z,19.90
2018-12-14T12:37:00.503Z,19.00
2018-12-14T12:39:31.393Z,19.80
2018-12-14T12:42:02.199Z,19.67
2018-12-14T12:44:33.865Z,20.73
2018-12-14T12:47:04.224Z,21.17
2018-12-14T12:49:35.276Z,22.10
2018-12-14T12:52:05.537Z,24.57
2018-12-14T12:54:35.634Z,21.43
2018-12-14T12:57:05.767Z,23.60
2018-12-14T12:59:42.301Z,23.37
2018-12-14T13:02:12.709Z,25.30
2018-12-14T13:07:19.771Z,23.27
2018-12-14T13:09:49.794Z,25.70
2018-12-14T13:12:19.980Z,26.42
2018-12-14T13:14:50.156Z,22.70
2018-12-14T13:17:20.383Z,23.00
2018-12-14T13:19:50.472Z,20.33
2018-12-14T13:22:20.721Z,20.47
2018-12-14T13:24:50.945Z,20.17
2018-12-14T13:27:20.911Z,21.30
2018-12-14T13:29:50.946Z,19.93
2018-12-14T13:32:21.264Z,21.65
2018-12-14T13:34:51.314Z,21.20
2018-12-14T13:37:21.651Z,22.00
2018-12-14T13:39:51.800Z,24.40
2018-12-14T13:42:21.805Z,23.67
2018-12-14T13:44:58.303Z,25.17
2018-12-14T13:47:28.477Z,25.75
2018-12-14T13:49:58.467Z,24.63
2018-12-14T13:52:29.241Z,24.90
2018-12-14T13:54:59.470Z,23.37
2018-12-14T13:57:29.481Z,25.40
2018-12-14T13:59:59.483Z,25.97
2018-12-14T14:02:29.812Z,24.50
2018-12-14T14:04:59.703Z,26.17
2018-12-14T14:07:29.868Z,26.10
2018-12-14T14:10:00.405Z,24.93
2018-12-14T14:12:31.606Z,24.23
2018-12-14T14:15:01.891Z,25.90
2018-12-14T14:17:31.842Z,26.20
2018-12-14T14:20:02.317Z,31.80
2018-12-14T14:22:32.768Z,29.27
2018-12-14T14:25:03.160Z,27.43
2018-12-14T14:27:34.386Z,28.90
2018-12-14T14:30:06.743Z,26.57
2018-12-14T14:32:37.887Z,27.17
2018-12-14T14:35:09.446Z,26.60
2018-12-14T14:37:40.065Z,26.10
2018-12-14T14:40:11.575Z,28.60
2018-12-14T14:42:42.277Z,31.53
2018-12-14T14:45:15.439Z,30.27
2018-12-14T14:47:46.530Z,29.77
2018-12-14T14:50:18.464Z,29.83
2018-12-14T14:52:49.968Z,33.17
2018-12-14T14:55:20.952Z,31.30
2018-12-14T14:57:53.402Z,36.87
2018-12-14T15:00:24.132Z,38.33
2018-12-14T15:02:55.579Z,39.70
2018-12-14T15:08:02.230Z,42.23
2018-12-14T15:10:32.807Z,42.37
2018-12-14T15:13:04.226Z,49.67
2018-12-14T15:15:35.312Z,52.53
2018-12-14T15:18:05.608Z,50.00
2018-12-14T15:23:13.847Z,49.33
2018-12-14T15:25:44.012Z,48.90
2018-12-14T15:28:15.429Z,52.20
2018-12-14T15:30:45.995Z,46.63
2018-12-14T15:33:19.527Z,58.20
2018-12-14T15:36:03.114Z,54.67
2018-12-14T15:38:35.946Z,67.30
2018-12-14T15:43:47.301Z,74.13
2018-12-14T15:46:19.047Z,76.10
2018-12-14T15:48:50.201Z,76.20
2018-12-14T15:51:21.641Z,78.87
2018-12-14T15:53:53.073Z,78.67
2018-12-14T15:56:23.930Z,73.33
2018-12-14T15:58:55.813Z,69.97
2018-12-14T16:04:02.857Z,68.57
2018-12-14T16:06:33.850Z,68.23
2018-12-14T16:09:05.750Z,71.30
2018-12-14T16:11:38.382Z,65.53
2018-12-14T16:14:09.281Z,63.63
2018-12-14T16:16:42.173Z,64.73
2018-12-14T16:19:13.598Z,62.43
2018-12-14T16:24:25.208Z,65.17
2018-12-14T16:26:56.427Z,63.10
2018-12-14T16:29:27.731Z,62.80
2018-12-14T16:31:57.938Z,64.43
2018-12-14T16:34:28.702Z,64.67
2018-12-14T16:36:59.413Z,66.67
2018-12-14T16:39:30.274Z,73.00
2018-12-14T16:42:00.848Z,78.40
2018-12-14T16:44:31.887Z,81.07
2018-12-14T16:47:02.207Z,88.47
2018-12-14T16:49:34.650Z,83.40
2018-12-14T16:52:06.698Z,81.33
2018-12-14T16:54:38.333Z,84.10
2018-12-14T16:57:09.029Z,76.63
2018-12-14T16:59:40.712Z,76.40
2018-12-14T17:02:10.738Z,79.82
2018-12-14T17:04:42.465Z,76.53
2018-12-14T17:07:14.575Z,79.87
2018-12-14T17:09:46.264Z,75.60
2018-12-14T17:12:18.415Z,80.55
2018-12-14T17:14:48.571Z,72.67
2018-12-14T17:17:19.385Z,77.33
2018-12-14T17:19:50.973Z,74.93
2018-12-14T17:22:21.096Z,80.10
2018-12-14T17:24:51.644Z,70.00
2018-12-14T17:27:21.818Z,79.27
2018-12-14T17:29:51.893Z,74.50
2018-12-14T17:32:22.218Z,77.72
2018-12-14T17:34:52.407Z,75.97
2018-12-14T17:37:22.330Z,70.27
2018-12-14T17:42:28.774Z,71.13
2018-12-14T17:44:58.754Z,68.33
2018-12-14T17:47:28.760Z,63.43
2018-12-14T17:49:58.925Z,65.27
2018-12-14T17:52:29.144Z,67.30
2018-12-14T17:54:59.576Z,65.70
2018-12-14T17:57:30.276Z,64.97
2018-12-14T18:00:00.561Z,69.87
2018-12-14T18:02:30.608Z,78.33
2018-12-14T18:05:00.586Z,74.67
2018-12-14T18:07:30.861Z,71.67
2018-12-14T18:10:00.845Z,72.80
2018-12-14T18:15:07.877Z,70.03
2018-12-14T18:17:37.834Z,63.27
2018-12-14T18:20:08.366Z,65.83
2018-12-14T18:22:38.629Z,65.20
2018-12-14T18:25:09.075Z,65.20
2018-12-14T18:27:39.701Z,67.97
2018-12-14T18:32:46.777Z,74.10
2018-12-14T18:35:16.715Z,70.42
2018-12-14T18:37:46.944Z,71.80
2018-12-14T18:42:54.839Z,59.63
2018-12-14T18:45:25.035Z,64.53
2018-12-14T18:47:55.142Z,63.47
2018-12-14T18:50:25.237Z,65.33
2018-12-14T18:52:56.696Z,66.13
2018-12-14T18:55:28.050Z,67.07
2018-12-14T18:57:59.834Z,68.00
2018-12-14T19:00:30.193Z,67.13
2018-12-14T19:03:01.611Z,67.73
2018-12-14T19:05:33.571Z,69.05
2018-12-14T19:08:05.520Z,70.83
2018-12-14T19:10:35.773Z,68.33
2018-12-14T19:13:06.265Z,65.23
2018-12-14T19:15:36.622Z,67.50
2018-12-14T19:18:07.059Z,64.93
2018-12-14T19:20:37.175Z,69.23
2018-12-14T19:23:07.752Z,66.67
2018-12-14T19:25:37.781Z,66.80
2018-12-14T19:28:08.430Z,70.63
2018-12-14T19:30:38.960Z,71.92
2018-12-14T19:33:10.205Z,68.07
2018-12-14T19:35:40.167Z,65.27
2018-12-14T19:38:10.488Z,67.53
2018-12-14T19:40:45.072Z,68.00
2018-12-14T19:43:15.314Z,64.22
2018-12-14T19:45:45.692Z,65.20
2018-12-14T19:48:16.493Z,70.37
2018-12-14T19:50:47.124Z,64.57
2018-12-14T19:53:17.486Z,63.98
2018-12-14T19:55:47.801Z,60.97
2018-12-14T19:58:18.226Z,64.87
2018-12-14T20:00:48.381Z,66.53
2018-12-14T20:03:18.727Z,65.13
2018-12-14T20:05:48.884Z,63.60
2018-12-14T20:08:19.512Z,62.17
2018-12-14T20:10:49.605Z,66.93
2018-12-14T20:13:19.960Z,64.32
2018-12-14T20:15:50.191Z,61.17
2018-12-14T20:18:20.477Z,62.70
2018-12-14T20:20:51.005Z,60.80
2018-12-14T20:23:21.414Z,57.38
2018-12-14T20:28:29.188Z,62.90
2018-12-14T20:30:59.114Z,61.63
2018-12-14T20:33:29.244Z,59.53
2018-12-14T20:35:59.266Z,61.68
2018-12-14T20:38:29.467Z,62.98
2018-12-14T20:40:59.971Z,58.87
2018-12-14T20:46:06.819Z,61.90
2018-12-14T20:48:37.873Z,58.87
2018-12-14T20:51:08.278Z,61.17
2018-12-14T20:53:38.711Z,65.90
2018-12-14T20:56:08.809Z,57.87
2018-12-14T20:58:39.879Z,58.87
2018-12-14T21:01:09.895Z,57.25
2018-12-14T21:03:40.066Z,58.03
2018-12-14T21:06:11.745Z,59.95
2018-12-14T21:08:41.930Z,56.57
2018-12-14T21:11:12.343Z,58.35
2018-12-14T21:13:42.629Z,57.60
2018-12-14T21:16:13.607Z,59.58
2018-12-14T21:18:44.171Z,60.20
2018-12-14T21:21:14.558Z,59.27
2018-12-14T21:23:44.750Z,57.60
2018-12-14T21:26:15.243Z,57.50
2018-12-14T21:28:45.438Z,59.23
2018-12-14T21:31:15.961Z,59.10
2018-12-14T21:33:46.475Z,58.17
2018-12-14T21:36:17.991Z,57.53
2018-12-14T21:38:49.086Z,60.33
2018-12-14T21:41:20.192Z,58.83
2018-12-14T21:43:50.813Z,58.47
2018-12-14T21:46:21.260Z,62.60
2018-12-14T21:48:51.584Z,64.07
2018-12-14T21:51:22.200Z,63.48
2018-12-14T21:53:52.648Z,63.60
2018-12-14T21:56:23.100Z,64.30
2018-12-14T21:58:54.062Z,61.90
2018-12-14T22:04:07.380Z,61.13
2018-12-14T22:06:38.305Z,57.00
2018-12-14T22:09:09.790Z,57.07
2018-12-14T22:11:40.527Z,59.53
2018-12-14T22:14:11.409Z,56.60
2018-12-14T22:16:41.681Z,55.67
2018-12-14T22:19:12.079Z,54.73
2018-12-14T22:21:46.374Z,65.27
2018-12-14T22:24:17.043Z,57.27
2018-12-14T22:26:47.590Z,61.07
2018-12-14T22:29:18.288Z,61.30
2018-12-14T22:31:49.927Z,60.27
2018-12-14T22:34:20.087Z,62.05
2018-12-14T22:36:50.772Z,63.70
2018-12-14T22:41:58.102Z,55.07
2018-12-14T22:44:28.698Z,56.20
2018-12-14T22:46:58.902Z,56.47
2018-12-14T22:49:34.284Z,59.37
2018-12-14T22:54:41.159Z,51.50
2018-12-14T22:57:11.394Z,48.90
2018-12-14T22:59:42.779Z,53.67
2018-12-14T23:02:13.195Z,52.73
2018-12-14T23:04:43.703Z,52.13
2018-12-14T23:07:13.846Z,47.33
2018-12-14T23:09:44.002Z,45.63
2018-12-14T23:12:14.101Z,49.53
2018-12-14T23:14:44.819Z,49.50
2018-12-14T23:17:15.183Z,43.50
2018-12-14T23:19:45.755Z,41.50
2018-12-14T23:22:16.334Z,42.20
2018-12-14T23:24:46.606Z,44.53
2018-12-14T23:27:17.550Z,43.50
2018-12-14T23:29:48.101Z,41.70
2018-12-14T23:32:18.365Z,44.63
2018-12-14T23:34:49.030Z,41.80
2018-12-14T23:37:19.479Z,42.50
2018-12-14T23:39:49.672Z,41.67
2018-12-14T23:44:56.980Z,38.87
2018-12-14T23:47:27.146Z,41.50
2018-12-14T23:49:58.012Z,38.33
2018-12-14T23:52:28.645Z,41.77
2018-12-14T23:54:59.253Z,42.93
2018-12-14T23:57:29.361Z,42.33
2018-12-14T23:59:59.666Z,37.13
